createdAt,value
2022-08-28T00:02:19.779Z,5.50
2022-08-28T00:05:25.503Z,5.38
2022-08-28T00:08:30.466Z,4.90
2022-08-28T00:11:32.973Z,4.90
2022-08-28T00:14:35.984Z,5.38
2022-08-28T00:17:38.494Z,5.15
2022-08-28T00:20:41.401Z,4.57
2022-08-28T00:23:43.811Z,5.43
2022-08-28T00:27:05.085Z,4.57
2022-08-28T00:30:08.006Z,5.63
2022-08-28T00:33:33.185Z,5.22
2022-08-28T00:36:37.385Z,5.40
2022-08-28T00:39:39.747Z,5.38
2022-08-28T00:42:43.277Z,5.50
2022-08-28T00:45:45.768Z,5.60
2022-08-28T00:48:49.473Z,5.25
2022-08-28T00:52:05.932Z,5.20
2022-08-28T00:55:14.200Z,5.60
2022-08-28T00:58:17.900Z,5.17
2022-08-28T01:01:20.336Z,5.45
2022-08-28T01:04:25.799Z,4.97
2022-08-28T01:07:28.759Z,5.40
2022-08-28T01:10:34.622Z,5.25
2022-08-28T01:13:39.715Z,5.67
2022-08-28T01:16:43.557Z,6.47
2022-08-28T01:19:55.518Z,6.15
2022-08-28T01:23:06.987Z,6.13
2022-08-28T01:26:11.766Z,6.00
2022-08-28T01:29:14.528Z,5.70
2022-08-28T01:32:31.998Z,5.55
2022-08-28T01:35:36.151Z,5.18
2022-08-28T01:38:41.388Z,5.80
2022-08-28T01:41:47.457Z,5.20
2022-08-28T01:44:50.307Z,5.97
2022-08-28T01:47:52.722Z,5.35
2022-08-28T01:50:56.030Z,5.35
2022-08-28T01:53:58.513Z,5.25
2022-08-28T01:57:01.263Z,5.90
2022-08-28T02:00:04.299Z,5.30
2022-08-28T02:03:14.541Z,5.90
2022-08-28T02:06:17.083Z,5.82
2022-08-28T02:09:19.540Z,4.90
2022-08-28T02:12:21.983Z,5.88
2022-08-28T02:15:26.530Z,5.47
2022-08-28T02:18:29.043Z,5.47
2022-08-28T02:21:31.564Z,5.30
2022-08-28T02:24:35.636Z,6.00
2022-08-28T02:27:40.061Z,5.72
2022-08-28T02:30:42.775Z,5.73
2022-08-28T02:33:45.795Z,6.13
2022-08-28T02:36:48.578Z,6.18
2022-08-28T02:39:54.905Z,5.90
2022-08-28T02:42:57.464Z,5.90
2022-08-28T02:45:59.984Z,6.30
2022-08-28T02:49:02.439Z,6.60
2022-08-28T02:52:06.811Z,6.50
2022-08-28T02:55:11.134Z,6.28
2022-08-28T02:58:13.625Z,6.35
2022-08-28T03:01:16.220Z,6.57
2022-08-28T03:04:18.744Z,6.50
2022-08-28T03:07:22.693Z,6.50
2022-08-28T03:10:25.339Z,7.47
2022-08-28T03:13:28.225Z,6.55
2022-08-28T03:16:32.515Z,6.30
2022-08-28T03:19:35.585Z,7.07
2022-08-28T03:22:57.049Z,6.60
2022-08-28T03:26:05.852Z,6.72
2022-08-28T03:29:08.226Z,7.07
2022-08-28T03:32:10.562Z,6.30
2022-08-28T03:35:13.416Z,7.03
2022-08-28T03:38:17.021Z,6.50
2022-08-28T03:41:21.703Z,7.45
2022-08-28T03:44:24.045Z,7.43
2022-08-28T03:47:28.356Z,7.63
2022-08-28T03:50:32.029Z,7.63
2022-08-28T03:53:34.629Z,7.65
2022-08-28T03:56:42.185Z,7.90
2022-08-28T03:59:44.819Z,8.10
2022-08-28T04:02:47.189Z,7.70
2022-08-28T04:05:49.789Z,8.27
2022-08-28T04:08:52.197Z,7.90
2022-08-28T04:11:55.236Z,7.43
2022-08-28T04:14:57.570Z,8.20
2022-08-28T04:18:00.424Z,7.70
2022-08-28T04:21:07.929Z,8.10
2022-08-28T04:24:10.506Z,8.63
2022-08-28T04:27:14.913Z,8.52
2022-08-28T04:30:18.789Z,8.13
2022-08-28T04:33:22.496Z,9.13
2022-08-28T04:36:25.039Z,7.70
2022-08-28T04:39:27.422Z,8.20
2022-08-28T04:42:29.764Z,8.00
2022-08-28T04:45:32.171Z,8.25
2022-08-28T04:48:35.308Z,8.53
2022-08-28T04:51:41.878Z,8.55
2022-08-28T04:54:44.588Z,8.70
2022-08-28T04:57:46.894Z,8.02
2022-08-28T05:00:49.517Z,8.55
2022-08-28T05:03:59.462Z,8.37
2022-08-28T05:07:01.932Z,8.63
2022-08-28T05:10:04.840Z,7.70
2022-08-28T05:13:09.927Z,7.25
2022-08-28T05:16:12.441Z,8.43
2022-08-28T05:19:18.580Z,8.33
2022-08-28T05:22:21.081Z,8.35
2022-08-28T05:25:23.488Z,8.40
2022-08-28T05:28:26.354Z,7.70
2022-08-28T05:31:33.072Z,8.50
2022-08-28T05:34:35.535Z,8.60
2022-08-28T05:37:38.059Z,7.63
2022-08-28T05:40:46.651Z,7.93
2022-08-28T05:43:49.578Z,7.25
2022-08-28T05:46:52.032Z,7.20
2022-08-28T05:49:54.597Z,6.97
2022-08-28T05:52:57.716Z,7.22
2022-08-28T05:56:00.046Z,7.95
2022-08-28T05:59:03.655Z,6.90
2022-08-28T06:02:06.646Z,7.18
2022-08-28T06:05:13.153Z,6.57
2022-08-28T06:08:16.183Z,6.78
2022-08-28T06:11:22.239Z,7.90
2022-08-28T06:14:27.608Z,7.90
2022-08-28T06:17:30.017Z,7.30
2022-08-28T06:20:37.666Z,7.20
2022-08-28T06:23:41.110Z,6.60
2022-08-28T06:26:44.375Z,6.03
2022-08-28T06:29:46.886Z,6.43
2022-08-28T06:32:49.214Z,6.05
2022-08-28T06:35:55.541Z,6.17
2022-08-28T06:39:00.027Z,6.00
2022-08-28T06:42:02.459Z,6.75
2022-08-28T06:45:05.467Z,6.30
2022-08-28T06:48:12.500Z,6.57
2022-08-28T06:51:15.219Z,6.43
2022-08-28T06:54:22.382Z,6.20
2022-08-28T06:57:26.252Z,6.50
2022-08-28T07:00:29.126Z,6.22
2022-08-28T07:03:31.865Z,6.13
2022-08-28T07:06:36.971Z,5.80
2022-08-28T07:09:39.379Z,6.07
2022-08-28T07:12:41.771Z,6.20
2022-08-28T07:15:44.156Z,5.80
2022-08-28T07:18:47.294Z,5.90
2022-08-28T07:21:49.673Z,5.87
2022-08-28T07:24:54.736Z,5.88
2022-08-28T07:27:57.595Z,6.03
2022-08-28T07:31:03.945Z,6.13
2022-08-28T07:34:06.408Z,5.90
2022-08-28T07:37:12.190Z,5.83
2022-08-28T07:40:18.956Z,5.93
2022-08-28T07:43:40.438Z,5.32
2022-08-28T07:46:44.511Z,5.90
2022-08-28T07:49:47.262Z,6.20
2022-08-28T07:52:49.634Z,6.53
2022-08-28T07:55:52.227Z,6.20
2022-08-28T07:58:56.229Z,6.00
2022-08-28T08:01:58.610Z,5.68
2022-08-28T08:05:01.029Z,6.25
2022-08-28T08:08:03.942Z,5.90
2022-08-28T08:11:16.652Z,5.57
2022-08-28T08:14:19.752Z,6.00
2022-08-28T08:17:22.282Z,6.25
2022-08-28T08:20:24.668Z,5.40
2022-08-28T08:23:27.422Z,6.10
2022-08-28T08:26:29.743Z,5.82
2022-08-28T08:29:35.763Z,6.38
2022-08-28T08:32:40.052Z,6.28
2022-08-28T08:35:42.873Z,6.15
2022-08-28T08:38:46.448Z,5.63
2022-08-28T08:41:52.472Z,5.90
2022-08-28T08:44:58.424Z,5.55
2022-08-28T08:48:01.350Z,5.82
2022-08-28T08:51:16.294Z,5.80
2022-08-28T08:54:21.311Z,5.47
2022-08-28T08:57:24.237Z,6.22
2022-08-28T09:00:28.702Z,6.13
2022-08-28T09:03:49.010Z,6.60
2022-08-28T09:06:54.464Z,6.60
2022-08-28T09:09:58.018Z,5.93
2022-08-28T09:13:05.156Z,5.85
2022-08-28T09:16:23.116Z,6.00
2022-08-28T09:19:25.764Z,6.30
2022-08-28T09:22:28.129Z,6.20
2022-08-28T09:25:50.915Z,6.23
2022-08-28T09:29:24.516Z,6.15
2022-08-28T09:32:29.700Z,6.47
2022-08-28T09:35:37.296Z,6.10
2022-08-28T09:38:39.762Z,6.50
2022-08-28T09:42:06.849Z,7.43
2022-08-28T09:45:13.482Z,6.78
2022-08-28T09:48:43.701Z,6.43
2022-08-28T09:51:46.129Z,6.65
2022-08-28T09:54:49.945Z,6.60
2022-08-28T09:57:52.867Z,6.97
2022-08-28T10:01:27.271Z,7.70
2022-08-28T10:04:48.686Z,7.63
2022-08-28T10:07:54.907Z,7.47
2022-08-28T10:11:02.794Z,8.80
2022-08-28T10:14:19.618Z,8.00
2022-08-28T10:17:45.490Z,7.82
2022-08-28T10:20:58.638Z,7.45
2022-08-28T10:24:26.074Z,7.45
2022-08-28T10:27:39.340Z,7.75
2022-08-28T10:30:53.420Z,8.07
2022-08-28T10:33:55.802Z,8.25
2022-08-28T10:37:19.965Z,7.75
2022-08-28T10:40:54.061Z,7.95
2022-08-28T10:44:00.760Z,7.20
2022-08-28T10:47:05.595Z,7.73
2022-08-28T10:50:28.125Z,7.53
2022-08-28T10:53:39.694Z,7.35
2022-08-28T10:56:56.175Z,7.60
2022-08-28T11:00:02.978Z,7.45
2022-08-28T11:03:32.916Z,7.87
2022-08-28T11:06:43.377Z,8.25
2022-08-28T11:09:48.860Z,8.13
2022-08-28T11:12:52.766Z,7.85
2022-08-28T11:15:55.101Z,7.82
2022-08-28T11:19:43.478Z,7.87
2022-08-28T11:22:52.980Z,8.40
2022-08-28T11:25:59.612Z,8.00
2022-08-28T11:29:03.131Z,8.40
2022-08-28T11:32:36.024Z,8.27
2022-08-28T11:35:44.892Z,8.20
2022-08-28T11:38:55.892Z,7.78
2022-08-28T11:42:10.592Z,8.00
2022-08-28T11:45:41.299Z,8.00
2022-08-28T11:48:53.887Z,8.13
2022-08-28T11:52:30.424Z,7.70
2022-08-28T11:55:45.045Z,7.93
2022-08-28T11:58:58.754Z,7.25
2022-08-28T12:02:39.197Z,8.20
2022-08-28T12:05:45.539Z,7.72
2022-08-28T12:08:51.449Z,8.17
2022-08-28T12:12:00.277Z,8.20
2022-08-28T12:15:07.742Z,8.13
2022-08-28T12:18:15.031Z,8.65
2022-08-28T12:21:27.920Z,7.90
2022-08-28T12:24:30.319Z,8.37
2022-08-28T12:27:38.381Z,8.40
2022-08-28T12:30:53.474Z,8.18
2022-08-28T12:34:04.006Z,8.13
2022-08-28T12:37:50.966Z,8.00
2022-08-28T12:40:56.469Z,8.73
2022-08-28T12:44:00.208Z,8.60
2022-08-28T12:47:02.650Z,8.77
2022-08-28T12:50:28.288Z,8.88
2022-08-28T12:53:40.809Z,9.15
2022-08-28T12:56:43.240Z,9.50
2022-08-28T12:59:51.231Z,9.77
2022-08-28T13:02:56.291Z,9.20
2022-08-28T13:06:04.616Z,9.43
2022-08-28T13:09:16.066Z,9.93
2022-08-28T13:12:23.943Z,8.47
2022-08-28T13:16:01.346Z,9.85
2022-08-28T13:19:06.680Z,10.57
2022-08-28T13:22:33.393Z,11.00
2022-08-28T13:25:37.533Z,11.70
2022-08-28T13:28:43.130Z,12.20
2022-08-28T13:31:45.618Z,10.90
2022-08-28T13:35:27.926Z,11.20
2022-08-28T13:38:30.364Z,11.10
2022-08-28T13:41:33.449Z,11.82
2022-08-28T13:44:53.178Z,11.40
2022-08-28T13:47:55.584Z,12.32
2022-08-28T13:51:05.042Z,12.45
2022-08-28T13:54:11.520Z,12.20
2022-08-28T13:57:15.832Z,11.02
2022-08-28T14:00:18.465Z,11.30
2022-08-28T14:03:37.610Z,11.43
2022-08-28T14:06:44.362Z,10.80
2022-08-28T14:09:46.884Z,10.57
2022-08-28T14:12:49.291Z,10.20
2022-08-28T14:15:51.687Z,10.50
2022-08-28T14:18:54.356Z,10.75
2022-08-28T14:21:57.566Z,9.48
2022-08-28T14:24:59.899Z,9.05
2022-08-28T14:28:02.524Z,9.15
2022-08-28T14:31:05.773Z,8.40
2022-08-28T14:34:10.161Z,9.38
2022-08-28T14:37:13.141Z,9.43
2022-08-28T14:40:15.702Z,9.10
2022-08-28T14:43:18.464Z,8.50
2022-08-28T14:46:24.991Z,8.97
2022-08-28T14:49:28.775Z,9.73
2022-08-28T14:52:31.171Z,8.77
2022-08-28T14:55:42.403Z,8.05
2022-08-28T14:58:45.367Z,10.30
2022-08-28T15:01:48.812Z,9.70
2022-08-28T15:04:51.147Z,9.88
2022-08-28T15:07:53.584Z,9.82
2022-08-28T15:10:56.100Z,9.50
2022-08-28T15:13:58.613Z,9.77
2022-08-28T15:17:01.168Z,9.83
2022-08-28T15:20:05.217Z,9.18
2022-08-28T15:23:08.502Z,9.50
2022-08-28T15:26:15.215Z,9.57
2022-08-28T15:29:18.369Z,10.65
2022-08-28T15:32:20.999Z,10.17
2022-08-28T15:35:23.651Z,10.32
2022-08-28T15:38:26.187Z,11.90
2022-08-28T15:41:29.662Z,11.85
2022-08-28T15:44:32.864Z,12.25
2022-08-28T15:47:37.153Z,12.27
2022-08-28T15:50:40.517Z,12.85
2022-08-28T15:53:45.231Z,12.07
2022-08-28T15:56:50.665Z,11.88
2022-08-28T15:59:55.137Z,11.90
2022-08-28T16:03:00.883Z,11.50
2022-08-28T16:06:09.289Z,12.45
2022-08-28T16:09:11.965Z,11.90
2022-08-28T16:12:14.651Z,12.48
2022-08-28T16:15:20.738Z,12.15
2022-08-28T16:18:23.733Z,12.37
2022-08-28T16:21:28.148Z,13.07
2022-08-28T16:24:30.671Z,13.02
2022-08-28T16:27:33.199Z,13.20
2022-08-28T16:30:38.843Z,12.85
2022-08-28T16:33:46.611Z,12.83
2022-08-28T16:36:50.351Z,12.55
2022-08-28T16:39:54.857Z,13.02
2022-08-28T16:42:57.294Z,12.65
2022-08-28T16:45:59.785Z,12.70
2022-08-28T16:49:02.572Z,12.63
2022-08-28T16:52:05.212Z,12.75
2022-08-28T16:55:09.789Z,12.43
2022-08-28T16:58:16.706Z,12.15
2022-08-28T17:01:21.510Z,12.20
2022-08-28T17:04:26.718Z,11.73
2022-08-28T17:07:30.328Z,11.13
2022-08-28T17:10:34.797Z,11.90
2022-08-28T17:13:37.894Z,12.18
2022-08-28T17:16:40.445Z,12.85
2022-08-28T17:19:42.870Z,11.63
2022-08-28T17:22:45.277Z,11.30
2022-08-28T17:25:47.745Z,11.63
2022-08-28T17:28:51.250Z,11.90
2022-08-28T17:31:53.794Z,12.23
2022-08-28T17:34:56.172Z,12.83
2022-08-28T17:37:58.605Z,13.02
2022-08-28T17:41:06.131Z,13.43
2022-08-28T17:44:08.769Z,12.38
2022-08-28T17:47:11.973Z,12.70
2022-08-28T17:50:14.282Z,14.13
2022-08-28T17:53:18.691Z,13.20
2022-08-28T17:56:21.144Z,12.80
2022-08-28T17:59:38.531Z,12.23
2022-08-28T18:02:40.995Z,13.57
2022-08-28T18:05:43.389Z,14.20
2022-08-28T18:08:47.706Z,14.10
2022-08-28T18:11:50.589Z,14.48
2022-08-28T18:14:53.225Z,14.52
2022-08-28T18:17:56.334Z,14.82
2022-08-28T18:20:58.703Z,15.07
2022-08-28T18:24:01.211Z,14.35
2022-08-28T18:27:05.075Z,14.20
2022-08-28T18:30:08.172Z,14.35
2022-08-28T18:33:12.748Z,15.35
2022-08-28T18:36:16.059Z,16.07
2022-08-28T18:39:22.596Z,15.23
2022-08-28T18:42:32.399Z,15.43
2022-08-28T18:45:34.831Z,16.15
2022-08-28T18:48:38.049Z,15.40
2022-08-28T18:51:43.409Z,35.67
2022-08-28T18:54:45.781Z,15.07
2022-08-28T18:57:50.464Z,15.52
2022-08-28T19:00:55.390Z,15.27
2022-08-28T19:03:57.783Z,15.07
2022-08-28T19:07:00.263Z,15.30
2022-08-28T19:10:03.830Z,15.35
2022-08-28T19:13:07.511Z,14.77
2022-08-28T19:16:12.520Z,14.88
2022-08-28T19:19:15.374Z,15.07
2022-08-28T19:22:18.660Z,15.37
2022-08-28T19:25:28.663Z,14.88
2022-08-28T19:28:31.535Z,14.25
2022-08-28T19:31:34.031Z,13.52
2022-08-28T19:34:36.530Z,13.45
2022-08-28T19:37:42.562Z,13.47
2022-08-28T19:40:45.575Z,14.32
2022-08-28T19:43:48.212Z,14.20
2022-08-28T19:46:54.133Z,14.48
2022-08-28T19:49:56.534Z,14.45
2022-08-28T19:52:59.749Z,15.33
2022-08-28T19:56:03.658Z,14.15
2022-08-28T19:59:08.931Z,15.07
2022-08-28T20:02:11.362Z,15.25
2022-08-28T20:05:14.885Z,20.92
2022-08-28T20:08:17.774Z,26.27
2022-08-28T20:11:25.178Z,24.08
2022-08-28T20:14:28.048Z,27.17
2022-08-28T20:17:30.686Z,27.15
2022-08-28T20:20:33.075Z,27.73
2022-08-28T20:23:35.479Z,29.07
2022-08-28T20:26:37.895Z,29.65
2022-08-28T20:29:40.385Z,30.85
2022-08-28T20:32:42.893Z,30.38
2022-08-28T20:35:45.494Z,26.33
2022-08-28T20:38:47.895Z,24.87
2022-08-28T20:41:50.966Z,25.23
2022-08-28T20:44:57.131Z,25.48
2022-08-28T20:47:59.536Z,26.25
2022-08-28T20:51:02.844Z,25.48
2022-08-28T20:54:05.659Z,24.03
2022-08-28T20:57:12.140Z,23.73
2022-08-28T21:00:14.599Z,21.98
2022-08-28T21:03:17.440Z,19.58
2022-08-28T21:06:22.191Z,21.33
2022-08-28T21:09:52.688Z,21.97
2022-08-28T21:12:47.063Z,18.63
2022-08-28T21:15:49.468Z,19.88
2022-08-28T21:19:14.657Z,20.45
2022-08-28T21:22:14.356Z,21.63
2022-08-28T21:25:20.543Z,20.77
2022-08-28T21:28:23.117Z,22.10
2022-08-28T21:31:25.581Z,22.17
2022-08-28T21:34:29.027Z,22.02
2022-08-28T21:37:31.782Z,22.55
2022-08-28T21:40:35.660Z,21.77
2022-08-28T21:43:42.635Z,20.63
2022-08-28T21:46:45.614Z,21.15
2022-08-28T21:49:50.121Z,20.80
2022-08-28T21:52:52.532Z,18.52
2022-08-28T21:55:55.248Z,18.37
2022-08-28T21:58:57.764Z,17.63
2022-08-28T22:02:00.323Z,19.20
2022-08-28T22:05:02.826Z,18.05
2022-08-28T22:08:05.335Z,16.10
2022-08-28T22:11:08.673Z,15.40
2022-08-28T22:14:11.105Z,14.63
2022-08-28T22:17:15.023Z,14.65
2022-08-28T22:20:18.157Z,13.98
2022-08-28T22:23:21.316Z,15.32
2022-08-28T22:26:24.047Z,12.07
2022-08-28T22:29:26.552Z,12.00
2022-08-28T22:32:28.930Z,11.45
2022-08-28T22:35:31.623Z,11.35
2022-08-28T22:38:34.037Z,10.02
2022-08-28T22:41:37.513Z,12.23
2022-08-28T22:44:40.068Z,11.75
2022-08-28T22:47:42.536Z,11.82
2022-08-28T22:50:47.315Z,11.68
2022-08-28T22:53:49.719Z,9.75
2022-08-28T22:56:52.137Z,10.80
2022-08-28T22:59:54.624Z,10.48
2022-08-28T23:02:58.007Z,10.73
2022-08-28T23:06:00.498Z,10.50
2022-08-28T23:09:03.595Z,10.20
2022-08-28T23:12:07.836Z,8.87
2022-08-28T23:15:15.024Z,9.70
2022-08-28T23:18:17.793Z,8.52
2022-08-28T23:21:23.782Z,9.27
2022-08-28T23:24:28.805Z,8.45
2022-08-28T23:27:38.208Z,8.00
2022-08-28T23:30:48.174Z,8.75
2022-08-28T23:33:51.059Z,9.27
2022-08-28T23:36:54.096Z,8.02
2022-08-28T23:39:56.485Z,8.68
2022-08-28T23:43:00.600Z,9.03
2022-08-28T23:46:03.147Z,9.35
2022-08-28T23:49:05.631Z,9.02
2022-08-28T23:52:08.749Z,9.25
2022-08-28T23:55:13.797Z,8.75
2022-08-28T23:58:18.242Z,9.77
